Time;durP1;ratioP1;P1;durP2;ratioP2;P2;SDS_P1;SDS_P2;PMS_P1;PMS_P2;Temp;Humidity;BMP_temperature;BMP_pressure;BME280_temperature;BME280_humidity;BME280_pressure;Samples;Min_cycle;Max_cycle;Signal;HPM_P1;HPM_P2
2022/02/12 00:00:16;;;;;;;32.92;25.23;;;;;;;1.59;100.00;100177.56;2082285;28;20187;-70
2022/02/12 00:01:21;;;;;;;33.65;24.63;;;;;;;1.64;100.00;100170.63;2081562;28;20188;-70
2022/02/12 00:02:24;;;;;;;34.53;25.70;;;;;;;1.66;100.00;100176.53;2081381;28;20207;-70
2022/02/12 00:03:26;;;;;;;31.38;25.63;;;;;;;1.65;100.00;100174.91;2081527;28;20586;-70
2022/02/12 00:04:29;;;;;;;34.13;25.40;;;;;;;1.61;100.00;100165.00;2082381;28;20557;-70
2022/02/12 00:05:31;;;;;;;37.38;25.42;;;;;;;1.58;100.00;100166.25;2082122;28;20211;-70
2022/02/12 00:06:34;;;;;;;31.50;25.45;;;;;;;1.56;100.00;100168.25;2081171;28;20230;-70
2022/02/12 00:07:38;;;;;;;30.80;25.00;;;;;;;1.60;100.00;100164.19;2073643;28;20204;-70
2022/02/12 00:08:45;;;;;;;31.08;24.55;;;;;;;1.58;100.00;100155.72;2081515;28;20218;-70
2022/02/12 00:09:47;;;;;;;29.92;23.67;;;;;;;1.56;100.00;100163.00;2082384;28;20246;-70
2022/02/12 00:10:49;;;;;;;34.55;25.15;;;;;;;1.59;100.00;100165.22;2082186;28;20192;-70
2022/02/12 00:11:51;;;;;;;30.55;23.13;;;;;;;1.57;100.00;100162.00;2082194;28;20249;-70
2022/02/12 00:12:53;;;;;;;33.08;23.15;;;;;;;1.56;100.00;100162.19;2082139;28;20184;-70
2022/02/12 00:13:57;;;;;;;30.98;23.70;;;;;;;1.56;100.00;100157.72;2082216;28;20198;-70
2022/02/12 00:14:59;;;;;;;29.75;24.15;;;;;;;1.55;100.00;100163.19;2081347;28;20645;-70
2022/02/12 00:16:02;;;;;;;31.88;23.58;;;;;;;1.55;100.00;100158.75;2081512;28;20242;-70
2022/02/12 00:17:05;;;;;;;32.70;23.70;;;;;;;1.58;100.00;100171.50;2082421;28;20233;-70
2022/02/12 00:18:08;;;;;;;29.23;23.40;;;;;;;1.58;100.00;100168.88;2082183;28;20653;-70
2022/02/12 00:19:09;;;;;;;31.77;24.15;;;;;;;1.56;100.00;100173.50;2082151;28;20270;-70
2022/02/12 00:20:13;;;;;;;29.83;23.60;;;;;;;1.56;100.00;100173.50;2082130;28;20192;-70
2022/02/12 00:21:16;;;;;;;35.45;24.77;;;;;;;1.54;100.00;100175.56;2081628;28;20662;-70
2022/02/12 00:22:21;;;;;;;32.05;24.92;;;;;;;1.54;100.00;100178.19;2089504;28;20199;-70
2022/02/12 00:23:27;;;;;;;33.05;24.98;;;;;;;1.50;100.00;100178.81;2081333;28;20230;-70
2022/02/12 00:24:29;;;;;;;35.45;26.33;;;;;;;1.51;100.00;100181.25;2081517;28;20199;-70
2022/02/12 00:25:34;;;;;;;38.00;25.75;;;;;;;1.54;100.00;100186.06;2082139;28;20540;-70
2022/02/12 00:26:35;;;;;;;30.55;25.67;;;;;;;1.50;100.00;100186.72;2082381;28;20267;-70
2022/02/12 00:27:37;;;;;;;33.90;25.58;;;;;;;1.53;100.00;100183.66;2081411;28;20207;-70
2022/02/12 00:28:40;;;;;;;37.10;26.67;;;;;;;1.50;100.00;100184.88;2081429;28;20222;-70
2022/02/12 00:29:42;;;;;;;31.33;25.85;;;;;;;1.52;100.00;100182.84;2081488;28;20225;-70
2022/02/12 00:30:48;;;;;;;35.42;26.50;;;;;;;1.56;100.00;100189.28;2081933;28;20689;-70
2022/02/12 00:31:49;;;;;;;36.80;25.98;;;;;;;1.53;100.00;100192.34;2082043;28;20203;-70
2022/02/12 00:32:52;;;;;;;32.88;26.42;;;;;;;1.51;100.00;100191.75;2082169;28;20230;-70
2022/02/12 00:33:55;;;;;;;36.22;26.08;;;;;;;1.54;100.00;100190.53;2081655;28;20219;-70
2022/02/12 00:34:57;;;;;;;36.42;26.65;;;;;;;1.54;100.00;100191.31;2081626;28;20191;-70
2022/02/12 00:36:00;;;;;;;31.38;25.02;;;;;;;1.59;100.00;100195.97;2081625;28;20221;-71
2022/02/12 00:37:02;;;;;;;40.78;26.98;;;;;;;1.62;100.00;100198.97;2082330;28;20690;-70
2022/02/12 00:38:06;;;;;;;34.60;26.25;;;;;;;1.56;100.00;100199.81;2081424;28;20199;-70
2022/02/12 00:39:08;;;;;;;36.58;27.25;;;;;;;1.59;100.00;100196.78;2073643;28;20290;-70
2022/02/12 00:40:13;;;;;;;36.05;27.13;;;;;;;1.57;100.00;100206.72;2081712;28;20638;-70
2022/02/12 00:41:14;;;;;;;39.67;27.63;;;;;;;1.61;100.00;100207.91;2081295;28;20809;-70
2022/02/12 00:42:18;;;;;;;35.67;26.87;;;;;;;1.65;100.00;100208.28;2081464;28;20590;-70
2022/02/12 00:43:21;;;;;;;37.88;27.88;;;;;;;1.61;100.00;100215.78;2081607;28;20454;-70
2022/02/12 00:44:26;;;;;;;33.92;27.05;;;;;;;1.60;100.00;100213.38;2081343;28;20191;-70
2022/02/12 00:45:28;;;;;;;38.70;27.13;;;;;;;1.63;100.00;100208.47;2082122;28;20211;-70
2022/02/12 00:46:31;;;;;;;36.40;27.88;;;;;;;1.64;100.00;100210.09;2089684;28;20657;-70
2022/02/12 00:47:34;;;;;;;39.45;27.08;;;;;;;1.70;100.00;100218.97;2089609;28;20203;-70
2022/02/12 00:48:36;;;;;;;36.53;26.58;;;;;;;1.65;100.00;100224.88;2082036;28;20195;-70
2022/02/12 00:49:39;;;;;;;31.48;25.15;;;;;;;1.70;100.00;100218.97;2081553;28;20341;-70
2022/02/12 00:50:44;;;;;;;34.53;26.40;;;;;;;1.67;100.00;100216.78;2073843;28;20227;-71
2022/02/12 00:51:47;;;;;;;37.97;26.48;;;;;;;1.62;100.00;100229.75;2081159;28;20224;-70
2022/02/12 00:52:49;;;;;;;39.75;26.27;;;;;;;1.58;100.00;100216.22;2081954;28;20195;-70
2022/02/12 00:53:51;;;;;;;32.58;24.95;;;;;;;1.59;100.00;100217.03;2081598;28;20203;-70
2022/02/12 00:54:54;;;;;;;38.17;25.75;;;;;;;1.56;100.00;100225.31;2073786;28;20200;-70
2022/02/12 00:55:57;;;;;;;38.08;26.50;;;;;;;1.56;100.00;100226.09;2081414;28;20188;-70
2022/02/12 00:57:01;;;;;;;40.33;26.48;;;;;;;1.56;100.00;100223.47;2089496;28;20206;-69
2022/02/12 00:58:05;;;;;;;37.40;26.35;;;;;;;1.54;100.00;100220.25;2081208;28;20638;-69
2022/02/12 00:59:07;;;;;;;32.25;25.38;;;;;;;1.56;100.00;100214.78;2081426;28;20206;-70
2022/02/12 01:00:10;;;;;;;39.60;26.50;;;;;;;1.55;100.00;100219.25;2081973;28;20199;-70
2022/02/12 01:01:11;;;;;;;34.72;26.13;;;;;;;1.53;100.00;100215.22;2081088;28;20199;-71
2022/02/12 01:02:13;;;;;;;36.17;27.53;;;;;;;1.56;100.00;100222.69;2081403;28;20314;-70
2022/02/12 01:03:16;;;;;;;35.97;27.35;;;;;;;1.56;100.00;100227.94;2081983;28;20199;-70
2022/02/12 01:04:20;;;;;;;42.08;27.52;;;;;;;1.54;100.00;100229.97;2081986;28;20553;-70
2022/02/12 01:05:26;;;;;;;38.63;27.25;;;;;;;1.55;100.00;100227.13;2081970;28;20198;-70
2022/02/12 01:06:27;;;;;;;33.03;26.08;;;;;;;1.53;100.00;100231.78;2081557;28;20306;-70
2022/02/12 01:07:31;;;;;;;36.45;26.70;;;;;;;1.57;100.00;100227.75;2081935;28;20184;-70
2022/02/12 01:08:33;;;;;;;37.03;27.17;;;;;;;1.55;100.00;100221.06;2081221;28;20203;-70
2022/02/12 01:09:37;;;;;;;36.47;27.05;;;;;;;1.57;100.00;100232.19;2081400;28;20654;-70
2022/02/12 01:10:39;;;;;;;31.95;26.63;;;;;;;1.57;100.00;100224.31;2081937;28;20188;-70
2022/02/12 01:11:48;;;;;;;33.92;26.70;;;;;;;1.52;100.00;100226.75;2081949;28;20224;-70
2022/02/12 01:12:54;;;;;;;33.25;26.20;;;;;;;1.51;100.00;100228.56;2081914;28;20243;-70
2022/02/12 01:14:00;;;;;;;36.83;25.80;;;;;;;1.57;100.00;100232.19;2081917;28;20195;-70
2022/02/12 01:15:02;;;;;;;38.40;26.35;;;;;;;1.61;100.00;100226.31;2081464;28;20218;-70
2022/02/12 01:16:05;;;;;;;36.17;26.65;;;;;;;1.58;100.00;100224.09;2081181;28;20279;-70
2022/02/12 01:17:10;;;;;;;36.08;26.60;;;;;;;1.58;100.00;100228.56;2081627;28;20219;-70
2022/02/12 01:18:11;;;;;;;35.85;26.92;;;;;;;1.59;100.00;100215.19;2081482;28;20303;-70
2022/02/12 01:19:15;;;;;;;34.23;26.27;;;;;;;1.53;100.00;100231.78;2081372;28;20191;-70
2022/02/12 01:20:18;;;;;;;32.35;27.40;;;;;;;1.52;100.00;100222.28;2082403;28;20490;-69
2022/02/12 01:21:24;;;;;;;36.70;27.42;;;;;;;1.55;100.00;100221.06;2082393;28;20223;-70
2022/02/12 01:22:27;;;;;;;34.17;27.65;;;;;;;1.57;100.00;100216.44;2083413;28;20709;-70
2022/02/12 01:23:28;;;;;;;37.13;26.70;;;;;;;1.54;100.00;100238.66;2083455;28;20214;-70
2022/02/12 01:24:34;;;;;;;36.00;27.00;;;;;;;1.52;100.00;100221.50;2083419;28;20194;-70
2022/02/12 01:25:36;;;;;;;39.28;26.85;;;;;;;1.54;100.00;100235.22;2083619;28;20206;-70
2022/02/12 01:26:44;;;;;;;33.78;25.80;;;;;;;1.49;100.00;100220.09;2082655;28;20206;-70
2022/02/12 01:27:48;;;;;;;36.45;27.92;;;;;;;1.52;100.00;100224.91;2082895;28;20215;-71
2022/02/12 01:28:53;;;;;;;36.25;26.88;;;;;;;1.55;100.00;100224.50;2082629;28;20203;-69
2022/02/12 01:29:55;;;;;;;36.95;26.10;;;;;;;1.57;100.00;100221.69;2083158;28;20227;-70
2022/02/12 01:31:02;;;;;;;37.40;26.90;;;;;;;1.54;100.00;100222.09;2090924;28;20191;-69
2022/02/12 01:32:05;;;;;;;33.08;26.15;;;;;;;1.54;100.00;100243.13;2083585;28;20183;-70
2022/02/12 01:33:09;;;;;;;34.78;26.42;;;;;;;1.55;100.00;100223.69;2083563;28;20553;-70
2022/02/12 01:34:14;;;;;;;39.10;27.48;;;;;;;1.60;100.00;100229.16;2083268;28;20219;-70
2022/02/12 01:35:19;;;;;;;35.72;25.63;;;;;;;1.55;100.00;100224.50;2090792;28;20593;-70
2022/02/12 01:36:22;;;;;;;35.30;26.67;;;;;;;1.61;100.00;100236.81;2082140;28;20286;-70
2022/02/12 01:37:28;;;;;;;34.70;26.55;;;;;;;1.63;100.00;100234.78;2082642;28;20243;-70
2022/02/12 01:38:29;;;;;;;36.58;27.17;;;;;;;1.65;100.00;100256.44;2083274;28;20196;-70
2022/02/12 01:39:31;;;;;;;35.37;26.77;;;;;;;1.64;100.00;100231.13;2083422;28;20188;-70
2022/02/12 01:40:34;;;;;;;35.80;27.17;;;;;;;1.61;100.00;100238.66;2083513;28;20192;-70
2022/02/12 01:41:40;;;;;;;32.95;26.30;;;;;;;1.60;100.00;100229.16;2082843;28;20305;-70
2022/02/12 01:42:46;;;;;;;36.25;27.02;;;;;;;1.56;100.00;100247.16;2074942;28;20250;-70
2022/02/12 01:43:50;;;;;;;39.72;26.10;;;;;;;1.55;100.00;100224.50;2075415;28;20208;-70
2022/02/12 01:44:51;;;;;;;41.13;26.35;;;;;;;1.55;100.00;100224.50;2082727;28;20203;-70
2022/02/12 01:45:53;;;;;;;37.63;25.55;;;;;;;1.53;100.00;100237.06;2082485;28;20215;-71
2022/02/12 01:46:55;;;;;;;34.72;26.95;;;;;;;1.52;100.00;100232.81;2082715;28;20693;-70
2022/02/12 01:48:00;;;;;;;37.95;25.40;;;;;;;1.53;100.00;100242.31;2083452;28;20188;-70
2022/02/12 01:49:02;;;;;;;32.15;26.60;;;;;;;1.61;100.00;100234.19;2082494;28;20657;-70
2022/02/12 01:50:05;;;;;;;30.45;25.08;;;;;;;1.60;100.00;100222.06;2082677;28;20210;-70
2022/02/12 01:51:06;;;;;;;33.72;26.30;;;;;;;1.54;100.00;100228.16;2082669;28;20265;-70
2022/02/12 01:52:11;;;;;;;34.40;26.10;;;;;;;1.56;100.00;100220.84;2090867;28;20187;-70
2022/02/12 01:53:15;;;;;;;35.13;26.23;;;;;;;1.55;100.00;100223.69;2090448;28;20183;-70
2022/02/12 01:54:18;;;;;;;37.75;25.45;;;;;;;1.53;100.00;100223.09;2090680;28;20198;-71
2022/02/12 01:55:20;;;;;;;32.67;24.27;;;;;;;1.51;100.00;100233.84;2090731;28;20300;-69
2022/02/12 01:56:26;;;;;;;30.60;25.20;;;;;;;1.48;100.00;100231.63;2083087;28;20188;-70
2022/02/12 01:57:27;;;;;;;32.50;25.73;;;;;;;1.46;100.00;100228.38;2082762;28;20227;-69
2022/02/12 01:58:31;;;;;;;33.72;26.33;;;;;;;1.44;100.00;100233.03;2082555;28;20223;-70
2022/02/12 01:59:34;;;;;;;33.78;26.40;;;;;;;1.42;100.00;100243.78;2083330;28;20200;-70
2022/02/12 02:00:37;;;;;;;34.83;26.02;;;;;;;1.45;100.00;100233.84;2082404;28;20230;-69
2022/02/12 02:01:40;;;;;;;33.97;26.23;;;;;;;1.44;100.00;100248.00;2082544;28;20253;-70
2022/02/12 02:02:46;;;;;;;34.55;25.30;;;;;;;1.48;100.00;100234.25;2090563;28;20198;-69
2022/02/12 02:03:48;;;;;;;28.83;25.55;;;;;;;1.47;100.00;100230.00;2090372;28;20262;-70
2022/02/12 02:04:50;;;;;;;31.33;26.25;;;;;;;1.46;100.00;100236.25;2090578;28;20289;-70
2022/02/12 02:05:51;;;;;;;35.38;26.40;;;;;;;1.44;100.00;100243.56;2082354;28;20310;-69
2022/02/12 02:06:53;;;;;;;36.83;25.87;;;;;;;1.48;100.00;100252.66;2081995;28;20227;-69
2022/02/12 02:07:54;;;;;;;35.17;25.95;;;;;;;1.54;100.00;100245.75;2083096;28;20427;-70
2022/02/12 02:08:59;;;;;;;36.10;25.52;;;;;;;1.56;100.00;100247.16;2082684;28;20208;-70
2022/02/12 02:10:01;;;;;;;36.90;26.02;;;;;;;1.62;100.00;100256.03;2082462;28;20608;-70
2022/02/12 02:11:05;;;;;;;32.05;24.77;;;;;;;1.59;100.00;100262.53;2083053;28;20218;-70
2022/02/12 02:12:06;;;;;;;30.27;25.77;;;;;;;1.66;100.00;100259.88;2083001;28;20202;-70
2022/02/12 02:13:22;;;;;;;31.38;25.23;;;;;;;1.69;100.00;100256.84;2082644;28;20689;-70
2022/02/12 02:14:32;;;;;;;34.80;25.60;;;;;;;1.67;100.00;100267.56;2076402;28;20204;-70
2022/02/12 02:15:34;;;;;;;36.17;25.63;;;;;;;1.60;100.00;100271.22;2082533;28;20204;-70
2022/02/12 02:16:42;;;;;;;30.95;24.65;;;;;;;1.57;100.00;100264.56;2083041;28;20187;-70
2022/02/12 02:17:47;;;;;;;27.80;24.65;;;;;;;1.58;100.00;100270.63;2089955;28;20764;-69
2022/02/12 02:18:51;;;;;;;31.70;25.10;;;;;;;1.61;100.00;100275.47;2082617;28;20203;-70
2022/02/12 02:19:54;;;;;;;33.97;24.90;;;;;;;1.59;100.00;100277.50;2082881;28;20227;-69
2022/02/12 02:20:57;;;;;;;29.75;25.27;;;;;;;1.64;100.00;100267.16;2081834;28;20558;-70
2022/02/12 02:22:00;;;;;;;33.03;25.77;;;;;;;1.59;100.00;100267.00;2082726;28;20259;-70
2022/02/12 02:23:05;;;;;;;36.25;25.80;;;;;;;1.63;100.00;100273.44;2082971;28;20619;-70
2022/02/12 02:24:08;;;;;;;29.42;25.05;;;;;;;1.58;100.00;100276.69;2082958;28;20237;-70
2022/02/12 02:25:15;;;;;;;31.05;24.70;;;;;;;1.54;100.00;100274.69;2082930;28;20263;-70
2022/02/12 02:26:17;;;;;;;31.23;25.50;;;;;;;1.59;100.00;100280.13;2082886;28;20693;-70
2022/02/12 02:27:21;;;;;;;35.60;26.85;;;;;;;1.60;100.00;100276.50;2082117;28;20290;-70
2022/02/12 02:28:24;;;;;;;27.55;24.65;;;;;;;1.59;100.00;100273.06;2082664;28;20204;-70
2022/02/12 02:29:25;;;;;;;31.83;25.25;;;;;;;1.63;100.00;100283.97;2082947;28;20237;-70
2022/02/12 02:30:30;;;;;;;31.43;25.20;;;;;;;1.65;100.00;100284.56;2082195;28;20258;-69
2022/02/12 02:31:33;;;;;;;29.50;24.48;;;;;;;1.65;100.00;100284.56;2074715;28;20447;-70
2022/02/12 02:32:41;;;;;;;30.67;24.77;;;;;;;1.64;100.00;100283.75;2082301;28;20229;-70
2022/02/12 02:33:44;;;;;;;32.75;25.67;;;;;;;1.62;100.00;100290.25;2082796;28;20764;-69
2022/02/12 02:34:51;;;;;;;30.77;24.27;;;;;;;1.59;100.00;100294.09;2083118;28;20192;-69
2022/02/12 02:35:51;;;;;;;27.65;24.65;;;;;;;1.55;100.00;100287.63;2082790;28;20191;-69
2022/02/12 02:36:55;;;;;;;31.90;25.47;;;;;;;1.59;100.00;100291.47;2081825;28;20301;-69
2022/02/12 02:38:08;;;;;;;34.15;25.85;;;;;;;1.59;100.00;100293.28;2082272;28;20215;-70
2022/02/12 02:39:13;;;;;;;33.97;25.38;;;;;;;1.63;100.00;100295.28;2082902;28;20187;-70
2022/02/12 02:40:18;;;;;;;30.73;24.88;;;;;;;1.60;100.00;100290.44;2082520;28;20223;-70
2022/02/12 02:41:20;;;;;;;36.88;26.48;;;;;;;1.54;100.00;100299.16;2082208;28;20191;-69
2022/02/12 02:42:25;;;;;;;33.25;26.63;;;;;;;1.57;100.00;100293.50;2082151;28;20252;-69
2022/02/12 02:43:28;;;;;;;37.75;32.17;;;;;;;1.53;100.00;100302.00;2082286;28;20191;-70
2022/02/12 02:44:29;;;;;;;37.67;31.42;;;;;;;1.51;100.00;100310.09;2082809;28;20597;-69
2022/02/12 02:45:34;;;;;;;41.97;32.10;;;;;;;1.48;100.00;100307.88;2082759;28;20192;-70
2022/02/12 02:46:39;;;;;;;36.15;31.58;;;;;;;1.42;100.00;100306.88;2082240;28;20259;-70
2022/02/12 02:47:46;;;;;;;36.47;31.42;;;;;;;1.37;100.00;100311.94;2082566;28;20285;-69
2022/02/12 02:48:49;;;;;;;37.95;31.42;;;;;;;1.38;100.00;100321.44;2082938;28;20191;-70
2022/02/12 02:49:53;;;;;;;39.45;34.38;;;;;;;1.35;100.00;100318.41;2082848;28;20198;-69
2022/02/12 02:56:22;;;;;;;41.22;34.17;;;;;;;1.19;100.00;100329.34;2082974;28;20250;-70
2022/02/12 02:57:23;;;;;;;43.33;34.72;;;;;;;1.19;100.00;100331.97;2082666;28;20196;-69
2022/02/12 02:58:25;;;;;;;42.60;33.50;;;;;;;1.15;100.00;100342.09;2082719;28;20188;-69
2022/02/12 02:59:28;;;;;;;44.40;35.10;;;;;;;1.13;100.00;100347.56;2082025;28;20202;-70
2022/02/12 03:00:29;;;;;;;40.55;34.67;;;;;;;1.17;100.00;100352.41;2082321;28;20223;-69
2022/02/12 03:01:33;;;;;;;44.42;33.50;;;;;;;1.16;100.00;100345.53;2082825;28;20191;-70
2022/02/12 03:02:34;;;;;;;43.83;33.20;;;;;;;1.16;100.00;100348.97;2082146;28;20722;-69
2022/02/12 03:03:38;;;;;;;39.38;33.28;;;;;;;1.14;100.00;100348.38;2082241;28;20289;-69
2022/02/12 03:04:40;;;;;;;44.72;33.40;;;;;;;1.06;100.00;100352.00;2082169;28;20196;-70
2022/02/12 03:05:42;;;;;;;44.57;35.07;;;;;;;1.08;100.00;100355.22;2082825;28;20191;-70
2022/02/12 03:06:46;;;;;;;48.55;37.70;;;;;;;1.07;100.00;100363.31;2082235;28;20454;-70
2022/02/12 03:07:48;;;;;;;48.60;38.53;;;;;;;1.08;100.00;100360.50;2082592;28;20192;-70
2022/02/12 03:08:56;;;;;;;44.25;36.15;;;;;;;1.07;100.00;100365.94;2081919;28;20234;-70
2022/02/12 03:09:57;;;;;;;43.60;38.25;;;;;;;1.07;100.00;100361.50;2081828;28;20693;-70
2022/02/12 03:11:01;;;;;;;45.55;37.97;;;;;;;1.05;100.00;100379.28;2081963;28;20254;-70
2022/02/12 03:12:04;;;;;;;53.78;38.58;;;;;;;0.95;100.00;100370.16;2082604;28;20267;-69
2022/02/12 03:13:07;;;;;;;45.05;39.15;;;;;;;0.90;100.00;100368.16;2081842;28;20191;-69
2022/02/12 03:14:13;;;;;;;42.75;37.10;;;;;;;0.85;100.00;100373.19;2073766;28;20698;-70
2022/02/12 03:15:15;;;;;;;42.70;37.38;;;;;;;0.80;100.00;100378.25;2082052;28;20207;-69
2022/02/12 03:16:19;;;;;;;43.42;36.45;;;;;;;0.83;100.00;100362.06;2082428;28;20192;-69
2022/02/12 03:17:21;;;;;;;43.28;33.63;;;;;;;0.81;100.00;100377.25;2082561;28;20200;-70
2022/02/12 03:18:27;;;;;;;46.08;32.85;;;;;;;0.85;100.00;100386.31;2082527;28;20275;-69
2022/02/12 03:19:28;;;;;;;43.88;35.78;;;;;;;0.89;100.00;100384.13;2081884;28;20196;-69
2022/02/12 03:20:31;;;;;;;49.70;36.45;;;;;;;0.86;100.00;100387.94;2082025;28;20202;-70
2022/02/12 03:21:34;;;;;;;47.13;36.85;;;;;;;0.84;100.00;100388.16;2081358;28;20219;-69
2022/02/12 03:22:37;;;;;;;47.20;36.78;;;;;;;0.83;100.00;100389.16;2081830;28;20192;-70
2022/02/12 03:23:42;;;;;;;49.30;39.13;;;;;;;0.82;100.00;100392.00;2082360;28;20620;-70
2022/02/12 03:24:45;;;;;;;48.50;37.67;;;;;;;0.79;100.00;100387.13;2082009;28;20203;-70
2022/02/12 03:25:49;;;;;;;50.05;39.20;;;;;;;0.78;100.00;100396.00;2082159;28;20207;-70
2022/02/12 03:26:50;;;;;;;53.83;39.78;;;;;;;0.79;100.00;100400.28;2082486;28;20230;-70
2022/02/12 03:27:59;;;;;;;44.25;36.72;;;;;;;0.81;100.00;100401.69;2082478;28;20184;-70
2022/02/12 03:29:01;;;;;;;46.20;36.53;;;;;;;0.78;100.00;100396.00;2082129;28;20203;-69
2022/02/12 03:30:05;;;;;;;48.92;37.50;;;;;;;0.75;100.00;100397.22;2081838;28;20192;-69
2022/02/12 03:31:08;;;;;;;48.50;36.25;;;;;;;0.73;100.00;100387.94;2082675;28;20275;-69
2022/02/12 03:32:10;;;;;;;46.85;37.45;;;;;;;0.72;100.00;100391.56;2082437;28;20658;-69
2022/02/12 03:33:13;;;;;;;40.15;35.90;;;;;;;0.66;100.00;100384.47;2089900;28;20206;-70
2022/02/12 03:34:17;;;;;;;43.05;35.20;;;;;;;0.65;100.00;100394.16;2089922;28;20218;-67
2022/02/12 03:35:22;;;;;;;46.85;33.97;;;;;;;0.72;100.00;100394.19;2082328;28;20191;-71
2022/02/12 03:36:26;;;;;;;46.45;37.72;;;;;;;0.70;100.00;100398.84;2082088;28;20234;-69
2022/02/12 03:37:28;;;;;;;45.22;37.03;;;;;;;0.69;100.00;100400.63;2082640;28;20203;-69
2022/02/12 03:38:32;;;;;;;46.15;35.95;;;;;;;0.68;100.00;100395.56;2082325;28;20218;-69
2022/02/12 03:39:34;;;;;;;47.78;39.08;;;;;;;0.63;100.00;100406.69;2082274;28;20234;-69
2022/02/12 03:40:40;;;;;;;48.08;36.60;;;;;;;0.66;100.00;100414.16;2081642;28;20196;-69
2022/02/12 03:41:46;;;;;;;40.42;35.20;;;;;;;0.68;100.00;100411.34;2081778;28;20203;-69
2022/02/12 03:42:50;;;;;;;39.40;34.72;;;;;;;0.65;100.00;100398.63;2081437;28;20200;-70
2022/02/12 03:43:57;;;;;;;42.30;35.53;;;;;;;0.64;100.00;100407.50;2081969;28;20260;-70
2022/02/12 03:45:00;;;;;;;38.40;34.25;;;;;;;0.66;100.00;100411.53;2081958;28;20172;-69
2022/02/12 03:46:08;;;;;;;41.15;35.33;;;;;;;0.62;100.00;100412.97;2082293;28;20192;-69
2022/02/12 03:47:11;;;;;;;39.35;32.85;;;;;;;0.61;100.00;100413.13;2081646;28;20196;-69
2022/02/12 03:48:14;;;;;;;43.17;32.85;;;;;;;0.59;100.00;100420.41;2073623;28;20196;-70
2022/02/12 03:49:16;;;;;;;39.05;34.38;;;;;;;0.51;100.00;100421.38;2081958;28;20195;-70
2022/02/12 03:50:20;;;;;;;41.47;32.80;;;;;;;0.50;100.00;100415.31;2082255;28;20663;-69
2022/02/12 03:51:26;;;;;;;40.58;31.45;;;;;;;0.49;100.00;100424.22;2081835;28;20215;-70
2022/02/12 03:52:28;;;;;;;36.50;32.90;;;;;;;0.50;100.00;100431.06;2081973;28;20227;-70
2022/02/12 03:53:30;;;;;;;35.13;31.13;;;;;;;0.49;100.00;100433.91;2081735;28;20198;-69
2022/02/12 03:54:33;;;;;;;35.33;31.67;;;;;;;0.46;100.00;100429.88;2082293;28;20203;-70
2022/02/12 03:55:37;;;;;;;36.72;32.90;;;;;;;0.46;100.00;100442.19;2082325;28;20275;-69
2022/02/12 03:56:40;;;;;;;34.92;31.50;;;;;;;0.45;100.00;100440.56;2082243;28;20192;-69
2022/02/12 03:57:47;;;;;;;33.20;29.75;;;;;;;0.47;100.00;100439.34;2081442;28;20630;-69
2022/02/12 03:58:51;;;;;;;35.35;31.67;;;;;;;0.46;100.00;100448.25;2074581;28;20228;-70
2022/02/12 03:59:53;;;;;;;33.78;30.13;;;;;;;0.39;100.00;100436.91;2073657;28;20207;-69
2022/02/12 04:00:57;;;;;;;38.10;29.77;;;;;;;0.43;100.00;100455.69;2081692;28;20202;-69
2022/02/12 04:02:03;;;;;;;34.78;31.30;;;;;;;0.44;100.00;100452.88;2082223;28;20538;-70
2022/02/12 04:03:04;;;;;;;32.75;29.23;;;;;;;0.44;100.00;100450.25;2081775;28;20290;-69
2022/02/12 04:04:07;;;;;;;30.77;27.65;;;;;;;0.49;100.00;100455.72;2081567;28;20196;-70
2022/02/12 04:05:11;;;;;;;33.97;30.45;;;;;;;0.50;100.00;100452.09;2073152;28;20572;-69
2022/02/12 04:06:14;;;;;;;32.75;28.38;;;;;;;0.55;100.00;100454.94;2073564;28;20254;-69
2022/02/12 04:07:17;;;;;;;30.67;27.73;;;;;;;0.53;100.00;100458.78;2073737;28;20774;-69
2022/02/12 04:08:22;;;;;;;31.70;28.35;;;;;;;0.54;100.00;100452.50;2081548;28;20670;-69
2022/02/12 04:09:25;;;;;;;33.28;29.83;;;;;;;0.57;100.00;100458.19;2082191;28;20248;-69
2022/02/12 04:10:28;;;;;;;31.50;26.15;;;;;;;0.59;100.00;100470.28;2081523;28;20206;-69
2022/02/12 04:11:32;;;;;;;29.30;26.58;;;;;;;0.51;100.00;100451.06;2081611;28;20237;-70
2022/02/12 04:12:40;;;;;;;30.92;27.45;;;;;;;0.59;100.00;100459.78;2081611;28;20686;-69
2022/02/12 04:13:46;;;;;;;29.65;26.05;;;;;;;0.57;100.00;100457.38;2081566;28;20255;-69
2022/02/12 04:14:49;;;;;;;29.90;26.75;;;;;;;0.56;100.00;100461.81;2073921;28;20211;-69
2022/02/12 04:15:51;;;;;;;29.25;26.00;;;;;;;0.65;100.00;100464.28;2073419;28;20218;-70
2022/02/12 04:16:52;;;;;;;27.63;24.75;;;;;;;0.61;100.00;100465.66;2073512;28;20763;-70
2022/02/12 04:18:00;;;;;;;30.45;26.40;;;;;;;0.61;100.00;100465.66;2081194;28;20329;-68
2022/02/12 04:19:02;;;;;;;28.55;25.55;;;;;;;0.63;100.00;100467.09;2074368;28;20299;-69
2022/02/12 04:20:09;;;;;;;27.15;24.30;;;;;;;0.61;100.00;100471.75;2073411;28;20259;-67
2022/02/12 04:21:15;;;;;;;28.85;25.95;;;;;;;0.59;100.00;100470.28;2081253;28;20172;-69
2022/02/12 04:22:17;;;;;;;27.50;24.83;;;;;;;0.52;100.00;100475.50;2081704;28;20226;-68
2022/02/12 04:23:20;;;;;;;27.27;24.50;;;;;;;0.51;100.00;100473.91;2081752;28;20199;-68
2022/02/12 04:24:23;;;;;;;28.45;24.83;;;;;;;0.51;100.00;100469.44;2081807;28;20519;-68
2022/02/12 04:25:27;;;;;;;26.42;23.83;;;;;;;0.52;100.00;100476.34;2081473;28;20545;-70
2022/02/12 04:26:33;;;;;;;25.48;23.35;;;;;;;0.60;100.00;100469.28;2081762;28;20191;-68
2022/02/12 04:27:39;;;;;;;25.00;22.60;;;;;;;0.61;100.00;100484.03;2082100;28;20191;-69
2022/02/12 04:28:44;;;;;;;25.35;22.70;;;;;;;0.59;100.00;100478.97;2081932;28;20230;-68
2022/02/12 04:29:45;;;;;;;24.35;21.95;;;;;;;0.54;100.00;100476.97;2081523;28;20195;-68
2022/02/12 04:30:49;;;;;;;23.73;21.75;;;;;;;0.52;100.00;100481.59;2082164;28;20191;-68
2022/02/12 04:31:53;;;;;;;25.23;22.33;;;;;;;0.51;100.00;100479.94;2082028;28;20563;-68
2022/02/12 04:33:00;;;;;;;24.55;22.15;;;;;;;0.49;100.00;100489.03;2082058;28;20253;-68
2022/02/12 04:34:03;;;;;;;25.35;22.95;;;;;;;0.45;100.00;100495.69;2081230;28;20231;-68
2022/02/12 04:35:07;;;;;;;25.38;23.00;;;;;;;0.42;100.00;100486.38;2073731;28;20215;-68
2022/02/12 04:36:09;;;;;;;22.92;21.02;;;;;;;0.40;100.00;100496.25;2073365;28;20599;-68
2022/02/12 04:37:10;;;;;;;23.67;21.65;;;;;;;0.36;100.00;100495.03;2081760;28;20175;-69
2022/02/12 04:38:15;;;;;;;23.93;21.73;;;;;;;0.35;100.00;100496.06;2082147;28;20721;-68
2022/02/12 04:39:19;;;;;;;23.88;20.65;;;;;;;0.33;100.00;100498.03;2081678;28;20200;-68
2022/02/12 04:40:23;;;;;;;23.33;21.08;;;;;;;0.34;100.00;100498.84;2081412;28;20191;-68
2022/02/12 04:41:28;;;;;;;23.33;21.35;;;;;;;0.33;100.00;100503.28;2081245;28;20573;-69
2022/02/12 04:42:32;;;;;;;23.02;21.13;;;;;;;0.33;100.00;100497.22;2081511;28;20584;-69
2022/02/12 04:43:37;;;;;;;21.88;20.02;;;;;;;0.35;100.00;100505.72;2081675;28;20227;-69
2022/02/12 04:44:42;;;;;;;23.60;21.05;;;;;;;0.31;100.00;100504.50;2081499;28;20179;-69
2022/02/12 04:45:46;;;;;;;21.65;19.58;;;;;;;0.28;100.00;100509.13;2082205;28;20199;-70
2022/02/12 04:46:49;;;;;;;21.85;19.63;;;;;;;0.28;100.00;100516.19;2081527;28;20203;-69
2022/02/12 04:47:54;;;;;;;21.23;19.00;;;;;;;0.28;100.00;100513.56;2081382;28;20196;-69
2022/02/12 04:48:56;;;;;;;22.92;20.33;;;;;;;0.28;100.00;100527.50;2081633;28;20203;-69
2022/02/12 04:49:59;;;;;;;21.08;19.23;;;;;;;0.28;100.00;100521.44;2081575;28;20238;-69
2022/02/12 04:51:02;;;;;;;22.08;19.75;;;;;;;0.25;100.00;100519.19;2081497;28;20215;-69
2022/02/12 04:52:07;;;;;;;22.00;19.92;;;;;;;0.22;100.00;100523.00;2081329;28;20568;-68
2022/02/12 04:53:11;;;;;;;20.90;18.90;;;;;;;0.16;100.00;100528.22;2073760;28;20200;-69
2022/02/12 04:54:16;;;;;;;21.60;18.75;;;;;;;0.15;100.00;100527.41;2082397;28;20210;-69